createdAt,value
2019-03-01T00:01:35.726Z,30.13
2019-03-01T00:04:25.627Z,28.10
2019-03-01T00:07:37.555Z,23.00
2019-03-01T00:10:58.611Z,22.33
2019-03-01T00:14:13.668Z,26.53
2019-03-01T00:17:01.863Z,25.43
2019-03-01T00:20:20.271Z,34.10
2019-03-01T00:23:21.364Z,17.97
2019-03-01T00:25:59.586Z,27.97
2019-03-01T00:28:51.947Z,24.97
2019-03-01T00:31:24.129Z,21.90
2019-03-01T00:34:20.051Z,27.33
2019-03-01T00:37:27.689Z,24.33
2019-03-01T00:40:20.397Z,18.63
2019-03-01T00:43:27.795Z,20.90
2019-03-01T00:45:54.677Z,22.33
2019-03-01T00:48:21.431Z,22.27
2019-03-01T00:50:48.355Z,20.90
2019-03-01T00:53:15.149Z,18.90
2019-03-01T00:55:41.883Z,20.77
2019-03-01T00:58:08.779Z,23.20
2019-03-01T01:00:39.935Z,23.83
2019-03-01T01:03:06.904Z,19.70
2019-03-01T01:05:33.771Z,24.27
2019-03-01T01:08:00.511Z,22.97
2019-03-01T01:10:27.371Z,19.77
2019-03-01T01:12:54.309Z,24.43
2019-03-01T01:15:21.322Z,24.33
2019-03-01T01:17:48.059Z,34.73
2019-03-01T01:20:15.087Z,21.50
2019-03-01T01:22:41.975Z,26.37
2019-03-01T01:25:08.895Z,16.27
2019-03-01T01:27:36.437Z,22.40
2019-03-01T01:30:04.196Z,20.87
2019-03-01T01:32:31.184Z,21.93
2019-03-01T01:34:58.152Z,27.80
2019-03-01T01:37:24.913Z,24.20
2019-03-01T01:39:52.071Z,23.30
2019-03-01T01:42:18.993Z,24.40
2019-03-01T01:44:45.930Z,22.43
2019-03-01T01:47:12.764Z,21.80
2019-03-01T01:49:39.763Z,20.40
2019-03-01T01:52:06.623Z,23.20
2019-03-01T01:54:33.399Z,18.97
2019-03-01T01:57:00.154Z,17.77
2019-03-01T01:59:26.943Z,16.57
2019-03-01T02:01:53.799Z,19.07
2019-03-01T02:04:20.651Z,22.80
2019-03-01T02:06:47.511Z,20.47
2019-03-01T02:09:18.415Z,19.97
2019-03-01T02:11:45.140Z,16.97
2019-03-01T02:14:12.043Z,19.57
2019-03-01T02:16:38.827Z,19.73
2019-03-01T02:19:06.042Z,24.37
2019-03-01T02:21:32.783Z,21.13
2019-03-01T02:23:59.523Z,23.93
2019-03-01T02:26:26.344Z,20.17
2019-03-01T02:28:53.149Z,19.27
2019-03-01T02:31:20.049Z,19.10
2019-03-01T02:33:47.037Z,20.43
2019-03-01T02:36:13.922Z,15.37
2019-03-01T02:38:40.774Z,12.40
2019-03-01T02:41:07.620Z,11.97
2019-03-01T02:43:34.363Z,14.50
2019-03-01T02:46:01.224Z,13.33
2019-03-01T02:48:28.095Z,14.47
2019-03-01T02:50:54.935Z,14.20
2019-03-01T02:53:21.699Z,11.87
2019-03-01T02:55:48.602Z,18.37
2019-03-01T02:58:15.658Z,15.13
2019-03-01T03:00:42.450Z,11.23
2019-03-01T03:03:09.273Z,14.47
2019-03-01T03:05:51.736Z,13.17
2019-03-01T03:08:18.715Z,10.03
2019-03-01T03:10:45.564Z,12.53
2019-03-01T03:13:12.295Z,12.83
2019-03-01T03:15:41.913Z,11.93
2019-03-01T03:18:08.733Z,11.20
2019-03-01T03:20:35.792Z,12.30
2019-03-01T03:23:02.799Z,8.63
2019-03-01T03:25:29.726Z,11.27
2019-03-01T03:27:56.437Z,15.87
2019-03-01T03:30:23.414Z,12.60
2019-03-01T03:32:50.628Z,11.40
2019-03-01T03:35:17.487Z,15.37
2019-03-01T03:37:44.372Z,12.80
2019-03-01T03:40:11.520Z,17.50
2019-03-01T03:42:38.490Z,12.67
2019-03-01T03:45:06.745Z,12.13
2019-03-01T03:47:33.692Z,14.40
2019-03-01T03:50:00.574Z,17.17
2019-03-01T03:52:27.687Z,11.50
2019-03-01T03:54:54.439Z,14.70
2019-03-01T03:57:21.524Z,14.73
2019-03-01T03:59:48.480Z,15.23
2019-03-01T04:02:15.320Z,15.93
2019-03-01T04:04:42.277Z,16.87
2019-03-01T04:07:09.548Z,16.77
2019-03-01T04:09:36.408Z,16.37
2019-03-01T04:12:03.392Z,19.20
2019-03-01T04:14:30.144Z,12.87
2019-03-01T04:16:57.031Z,17.50
2019-03-01T04:19:24.040Z,19.67
2019-03-01T04:21:50.876Z,16.50
2019-03-01T04:24:17.888Z,18.60
2019-03-01T04:26:44.672Z,18.23
2019-03-01T04:29:11.608Z,16.33
2019-03-01T04:31:38.305Z,15.80
2019-03-01T04:34:06.059Z,17.53
2019-03-01T04:36:33.139Z,21.20
2019-03-01T04:38:59.957Z,14.37
2019-03-01T04:41:26.948Z,15.63
2019-03-01T04:43:53.799Z,16.53
2019-03-01T04:46:20.533Z,22.20
2019-03-01T04:48:47.340Z,18.47
2019-03-01T04:51:14.265Z,21.27
2019-03-01T04:53:41.352Z,19.57
2019-03-01T04:56:08.382Z,15.93
2019-03-01T04:58:35.375Z,16.00
2019-03-01T05:01:03.022Z,23.27
2019-03-01T05:03:29.894Z,19.07
2019-03-01T05:05:56.868Z,15.83
2019-03-01T05:08:23.737Z,19.97
2019-03-01T05:10:50.636Z,17.07
2019-03-01T05:13:17.591Z,21.73
2019-03-01T05:15:44.571Z,19.40
2019-03-01T05:18:11.468Z,22.90
2019-03-01T05:20:38.592Z,28.83
2019-03-01T05:23:05.491Z,23.10
2019-03-01T05:25:32.349Z,19.50
2019-03-01T05:27:59.293Z,21.10
2019-03-01T05:30:26.192Z,23.57
2019-03-01T05:32:53.139Z,21.17
2019-03-01T05:35:19.990Z,24.17
2019-03-01T05:37:47.035Z,23.67
2019-03-01T05:40:14.103Z,30.57
2019-03-01T05:42:41.159Z,22.80
2019-03-01T05:45:11.639Z,27.47
2019-03-01T05:47:38.377Z,26.60
2019-03-01T05:50:07.078Z,26.30
2019-03-01T05:52:34.104Z,24.43
2019-03-01T05:55:00.999Z,25.57
2019-03-01T05:57:27.815Z,24.20
2019-03-01T05:59:54.683Z,26.43
2019-03-01T06:02:35.111Z,22.63
2019-03-01T06:05:09.211Z,29.67
2019-03-01T06:07:54.798Z,28.40
2019-03-01T06:10:48.260Z,25.17
2019-03-01T06:13:58.376Z,24.80
2019-03-01T06:16:37.463Z,30.53
2019-03-01T06:19:30.179Z,28.13
2019-03-01T06:23:00.509Z,28.50
2019-03-01T06:25:40.855Z,30.10
2019-03-01T06:28:35.787Z,29.80
2019-03-01T06:31:34.463Z,36.00
2019-03-01T06:34:42.399Z,35.13
2019-03-01T06:37:36.639Z,33.40
2019-03-01T06:40:28.803Z,27.37
2019-03-01T06:43:42.859Z,23.63
2019-03-01T06:46:44.201Z,30.80
2019-03-01T06:49:20.159Z,27.47
2019-03-01T06:51:46.953Z,41.93
2019-03-01T06:54:13.800Z,34.33
2019-03-01T06:56:40.635Z,30.57
2019-03-01T06:59:07.532Z,40.17
2019-03-01T07:01:37.336Z,36.50
2019-03-01T07:04:07.955Z,31.13
2019-03-01T07:06:34.690Z,38.60
2019-03-01T07:09:01.691Z,42.17
2019-03-01T07:11:28.411Z,34.07
2019-03-01T07:13:55.354Z,35.73
2019-03-01T07:16:22.234Z,36.03
2019-03-01T07:18:48.967Z,43.60
2019-03-01T07:21:15.740Z,38.60
2019-03-01T07:23:42.549Z,28.77
2019-03-01T07:26:09.268Z,34.37
2019-03-01T07:28:36.152Z,36.37
2019-03-01T07:31:03.991Z,30.20
2019-03-01T07:33:31.009Z,33.90
2019-03-01T07:35:57.772Z,27.50
2019-03-01T07:38:24.479Z,26.50
2019-03-01T07:40:51.255Z,32.83
2019-03-01T07:43:18.128Z,27.93
2019-03-01T07:45:45.063Z,26.57
2019-03-01T07:48:11.855Z,24.93
2019-03-01T07:50:38.560Z,27.07
2019-03-01T07:53:05.698Z,19.67
2019-03-01T07:55:32.548Z,23.87
2019-03-01T07:57:59.327Z,22.07
2019-03-01T08:00:26.173Z,21.60
2019-03-01T08:02:52.891Z,21.57
2019-03-01T08:05:19.801Z,18.10
2019-03-01T08:07:55.806Z,20.03
2019-03-01T08:10:20.627Z,20.93
2019-03-01T08:12:44.123Z,19.70
2019-03-01T08:15:12.178Z,20.47
2019-03-01T08:17:38.922Z,25.97
2019-03-01T08:20:08.945Z,24.17
2019-03-01T08:22:47.564Z,25.67
2019-03-01T08:25:05.696Z,25.23
2019-03-01T08:27:32.589Z,24.00
2019-03-01T08:29:59.323Z,25.73
2019-03-01T08:32:27.487Z,23.57
2019-03-01T08:34:55.130Z,23.13
2019-03-01T08:37:21.983Z,22.40
2019-03-01T08:39:49.686Z,21.67
2019-03-01T08:42:16.708Z,27.10
2019-03-01T08:44:43.628Z,22.63
2019-03-01T08:47:10.671Z,16.90
2019-03-01T08:49:37.675Z,17.67
2019-03-01T08:52:04.555Z,15.67
2019-03-01T08:54:31.317Z,15.00
2019-03-01T08:56:58.427Z,17.37
2019-03-01T08:59:25.431Z,14.90
2019-03-01T09:01:52.399Z,13.93
2019-03-01T09:04:21.458Z,12.57
2019-03-01T09:06:47.877Z,14.43
2019-03-01T09:09:17.559Z,19.33
2019-03-01T09:11:44.697Z,10.33
2019-03-01T09:14:12.327Z,10.87
2019-03-01T09:16:40.961Z,9.57
2019-03-01T09:19:07.958Z,14.57
2019-03-01T09:21:34.864Z,9.53
2019-03-01T09:24:01.853Z,8.30
2019-03-01T09:26:28.755Z,8.00
2019-03-01T09:28:55.806Z,8.67
2019-03-01T09:31:22.773Z,6.00
2019-03-01T09:33:49.746Z,7.97
2019-03-01T09:36:23.195Z,10.33
2019-03-01T09:38:50.040Z,6.23
2019-03-01T09:41:17.071Z,6.30
2019-03-01T09:43:43.792Z,3.00
2019-03-01T09:46:10.767Z,4.13
2019-03-01T09:48:37.638Z,4.37
2019-03-01T09:51:07.301Z,4.77
2019-03-01T09:53:34.169Z,4.93
2019-03-01T09:56:02.280Z,5.03
2019-03-01T09:58:29.028Z,5.60
2019-03-01T10:01:00.299Z,3.20
2019-03-01T10:03:27.255Z,3.90
2019-03-01T10:05:54.183Z,4.80
2019-03-01T10:08:21.031Z,5.57
2019-03-01T10:10:47.973Z,9.67
2019-03-01T10:13:15.136Z,5.87
2019-03-01T10:15:42.024Z,6.30
2019-03-01T10:18:09.052Z,5.67
2019-03-01T10:20:36.053Z,5.23
2019-03-01T10:23:03.163Z,5.20
2019-03-01T10:25:31.359Z,6.13
2019-03-01T10:27:58.272Z,4.20
2019-03-01T10:30:25.235Z,4.73
2019-03-01T10:32:52.138Z,4.40
2019-03-01T10:35:19.226Z,3.43
2019-03-01T10:37:46.221Z,3.47
2019-03-01T10:40:15.191Z,3.97
2019-03-01T10:42:42.044Z,3.40
2019-03-01T10:45:12.042Z,4.10
2019-03-01T10:47:38.867Z,6.03
2019-03-01T10:50:06.954Z,4.53
2019-03-01T10:52:33.854Z,4.90
2019-03-01T10:55:00.718Z,6.30
2019-03-01T10:57:27.585Z,6.33
2019-03-01T10:59:54.536Z,7.97
2019-03-01T11:02:21.423Z,6.00
2019-03-01T11:04:48.287Z,6.53
2019-03-01T11:07:15.167Z,7.40
2019-03-01T11:09:41.920Z,6.07
2019-03-01T11:12:09.001Z,7.47
2019-03-01T11:14:35.984Z,7.07
2019-03-01T11:17:02.827Z,6.60
2019-03-01T11:19:29.711Z,7.77
2019-03-01T11:21:56.448Z,7.63
2019-03-01T11:24:23.443Z,7.63
2019-03-01T11:26:50.312Z,7.83
2019-03-01T11:29:17.187Z,8.03
2019-03-01T11:31:44.082Z,11.60
2019-03-01T11:34:10.935Z,8.77
2019-03-01T11:36:37.855Z,8.90
2019-03-01T11:39:05.317Z,7.33
2019-03-01T11:41:32.147Z,10.57
2019-03-01T11:43:58.947Z,8.60
2019-03-01T11:46:25.775Z,8.47
2019-03-01T11:48:52.639Z,9.67
2019-03-01T11:51:19.659Z,8.67
2019-03-01T11:53:46.479Z,8.37
2019-03-01T11:56:13.615Z,9.20
2019-03-01T11:58:40.583Z,10.33
2019-03-01T12:01:16.699Z,8.47
2019-03-01T12:03:36.439Z,18.50
2019-03-01T12:06:03.299Z,15.47
2019-03-01T12:08:30.267Z,15.93
2019-03-01T12:10:57.338Z,16.97
2019-03-01T12:13:24.380Z,22.63
2019-03-01T12:15:51.343Z,17.57
2019-03-01T12:18:18.095Z,22.77
2019-03-01T12:20:44.967Z,21.93
2019-03-01T12:23:11.727Z,21.07
2019-03-01T12:25:38.467Z,26.60
2019-03-01T12:28:05.464Z,29.67
2019-03-01T12:30:32.310Z,33.17
2019-03-01T12:32:59.178Z,31.23
2019-03-01T12:35:26.931Z,33.53
2019-03-01T12:37:53.809Z,37.30
2019-03-01T12:40:23.650Z,41.40
2019-03-01T12:42:50.801Z,43.57
2019-03-01T12:45:17.696Z,44.80
2019-03-01T12:47:44.776Z,49.73
2019-03-01T12:50:11.807Z,62.73
2019-03-01T12:52:38.784Z,57.73
2019-03-01T12:55:06.995Z,62.30
2019-03-01T12:57:33.873Z,54.73
2019-03-01T13:00:00.646Z,61.33
2019-03-01T13:02:27.515Z,61.37
2019-03-01T13:04:54.543Z,60.37
2019-03-01T13:07:21.473Z,60.27
2019-03-01T13:09:48.403Z,68.87
2019-03-01T13:12:15.321Z,68.00
2019-03-01T13:14:42.188Z,63.57
2019-03-01T13:17:08.962Z,62.20
2019-03-01T13:19:35.707Z,64.10
2019-03-01T13:22:02.907Z,61.73
2019-03-01T13:24:29.888Z,62.00
2019-03-01T13:26:56.779Z,64.03
2019-03-01T13:29:23.627Z,65.07
2019-03-01T13:31:50.513Z,65.63
2019-03-01T13:34:17.307Z,68.90
2019-03-01T13:36:44.112Z,71.93
2019-03-01T13:39:11.291Z,66.47
2019-03-01T13:41:38.303Z,64.60
2019-03-01T13:44:05.183Z,66.47
2019-03-01T13:46:33.418Z,72.20
2019-03-01T13:49:00.295Z,71.40
2019-03-01T13:51:27.123Z,72.07
2019-03-01T13:53:54.015Z,77.33
2019-03-01T13:56:20.916Z,72.17
2019-03-01T13:58:48.044Z,83.47
2019-03-01T14:01:14.951Z,80.90
2019-03-01T14:03:41.895Z,79.27
2019-03-01T14:06:08.715Z,77.37
2019-03-01T14:08:37.399Z,79.30
2019-03-01T14:11:04.371Z,74.83
2019-03-01T14:13:31.257Z,75.73
2019-03-01T14:15:58.108Z,77.13
2019-03-01T14:18:25.134Z,78.03
2019-03-01T14:20:54.455Z,78.60
2019-03-01T14:23:21.236Z,74.50
2019-03-01T14:25:49.520Z,76.27
2019-03-01T14:28:16.523Z,71.23
2019-03-01T14:30:43.298Z,75.50
2019-03-01T14:33:10.290Z,74.80
2019-03-01T14:35:37.191Z,75.70
2019-03-01T14:38:04.187Z,68.27
2019-03-01T14:40:31.069Z,75.37
2019-03-01T14:42:58.052Z,76.10
2019-03-01T14:45:25.784Z,77.37
2019-03-01T14:47:53.031Z,83.27
2019-03-01T14:50:21.147Z,83.07
2019-03-01T14:52:48.152Z,80.40
2019-03-01T14:55:19.794Z,86.33
2019-03-01T14:58:11.359Z,84.37
2019-03-01T15:00:49.540Z,86.30
2019-03-01T15:03:30.552Z,78.03
2019-03-01T15:05:57.907Z,85.90
2019-03-01T15:08:24.773Z,87.63
2019-03-01T15:10:51.707Z,84.00
2019-03-01T15:13:18.554Z,86.57
2019-03-01T15:15:45.432Z,88.67
2019-03-01T15:18:12.494Z,82.00
2019-03-01T15:20:39.247Z,85.10
2019-03-01T15:23:05.964Z,89.67
2019-03-01T15:25:33.000Z,82.57
2019-03-01T15:27:59.743Z,78.23
2019-03-01T15:30:26.535Z,91.27
2019-03-01T15:32:53.273Z,91.27
2019-03-01T15:35:20.135Z,88.83
2019-03-01T15:37:46.931Z,89.00
2019-03-01T15:40:13.775Z,83.43
2019-03-01T15:42:40.495Z,85.07
2019-03-01T15:45:08.203Z,89.03
2019-03-01T15:47:35.055Z,71.83
2019-03-01T15:50:02.480Z,91.10
2019-03-01T15:52:29.292Z,85.97
2019-03-01T15:54:56.167Z,81.17
2019-03-01T15:57:23.083Z,83.43
2019-03-01T15:59:50.467Z,78.77
2019-03-01T16:02:17.335Z,82.63
2019-03-01T16:04:44.287Z,86.40
2019-03-01T16:07:11.003Z,80.90
2019-03-01T16:09:37.723Z,71.57
2019-03-01T16:12:04.599Z,71.30
2019-03-01T16:14:31.507Z,69.70
2019-03-01T16:16:58.498Z,67.97
2019-03-01T16:19:25.278Z,72.23
2019-03-01T16:21:52.107Z,66.87
2019-03-01T16:24:19.013Z,76.70
2019-03-01T16:26:45.995Z,74.03
2019-03-01T16:29:13.715Z,74.77
2019-03-01T16:31:40.667Z,77.40
2019-03-01T16:34:07.578Z,75.00
2019-03-01T16:36:38.223Z,72.87
2019-03-01T16:39:10.126Z,69.40
2019-03-01T16:41:39.683Z,66.27
2019-03-01T16:44:07.709Z,67.40
2019-03-01T16:46:34.583Z,63.43
2019-03-01T16:49:01.484Z,66.47
2019-03-01T16:51:28.332Z,69.33
2019-03-01T16:53:55.095Z,68.63
2019-03-01T16:56:21.851Z,68.87
2019-03-01T16:58:48.616Z,64.17
2019-03-01T17:01:15.626Z,65.37
2019-03-01T17:03:42.480Z,65.97
2019-03-01T17:06:10.502Z,60.30
2019-03-01T17:08:39.603Z,69.33
2019-03-01T17:11:07.022Z,77.77
2019-03-01T17:13:33.871Z,67.33
2019-03-01T17:16:00.765Z,58.77
2019-03-01T17:18:27.627Z,58.50
2019-03-01T17:20:54.512Z,56.43
2019-03-01T17:23:21.223Z,56.13
2019-03-01T17:25:48.219Z,58.47
2019-03-01T17:28:16.367Z,51.63
2019-03-01T17:30:46.680Z,56.33
2019-03-01T17:33:12.842Z,46.37
2019-03-01T17:35:41.082Z,57.33
2019-03-01T17:38:08.791Z,58.63
2019-03-01T17:40:35.892Z,44.20
2019-03-01T17:43:03.038Z,48.17
2019-03-01T17:45:29.915Z,53.20
2019-03-01T17:47:56.793Z,55.70
2019-03-01T17:50:23.629Z,56.63
2019-03-01T17:52:50.537Z,49.77
2019-03-01T17:55:17.512Z,48.50
2019-03-01T17:57:44.479Z,50.00
2019-03-01T18:00:13.707Z,44.23
2019-03-01T18:02:40.578Z,47.90
2019-03-01T18:05:08.127Z,43.43
2019-03-01T18:07:35.186Z,46.77
2019-03-01T18:10:02.319Z,39.90
2019-03-01T18:12:29.331Z,42.83
2019-03-01T18:14:56.192Z,37.97
2019-03-01T18:17:23.062Z,42.97
2019-03-01T18:19:49.831Z,42.13
2019-03-01T18:22:16.695Z,33.30
2019-03-01T18:24:43.566Z,36.00
2019-03-01T18:27:12.279Z,31.27
2019-03-01T18:29:42.404Z,29.90
2019-03-01T18:32:10.031Z,27.40
2019-03-01T18:34:37.507Z,29.70
2019-03-01T18:37:17.909Z,29.00
2019-03-01T18:39:33.288Z,29.40
2019-03-01T18:42:02.470Z,25.83
2019-03-01T18:44:28.687Z,26.57
2019-03-01T18:46:56.374Z,28.47
2019-03-01T18:49:23.350Z,24.33
2019-03-01T18:51:50.146Z,28.03
2019-03-01T18:54:17.052Z,25.27
2019-03-01T18:56:44.075Z,24.23
2019-03-01T18:59:10.921Z,22.17
2019-03-01T19:01:37.871Z,21.80
2019-03-01T19:04:04.928Z,21.07
2019-03-01T19:06:32.019Z,23.60
2019-03-01T19:08:58.880Z,22.83
2019-03-01T19:11:25.920Z,22.27
2019-03-01T19:13:52.916Z,25.93
2019-03-01T19:16:19.855Z,26.63
2019-03-01T19:18:48.292Z,30.90
2019-03-01T19:21:17.377Z,30.03
2019-03-01T19:23:44.411Z,31.63
2019-03-01T19:26:11.210Z,36.57
2019-03-01T19:28:38.967Z,37.57
2019-03-01T19:31:06.207Z,43.77
2019-03-01T19:33:34.636Z,44.83
2019-03-01T19:36:03.555Z,46.73
2019-03-01T19:38:30.819Z,45.87
2019-03-01T19:40:57.535Z,47.53
2019-03-01T19:43:24.451Z,46.53
2019-03-01T19:45:51.434Z,46.93
2019-03-01T19:48:18.227Z,46.10
2019-03-01T19:50:45.111Z,42.67
2019-03-01T19:53:12.135Z,42.57
2019-03-01T19:55:39.115Z,42.20
2019-03-01T19:58:08.665Z,36.37
2019-03-01T20:00:35.198Z,37.83
2019-03-01T20:03:02.018Z,34.43
2019-03-01T20:05:31.670Z,34.83
2019-03-01T20:07:57.819Z,35.97
2019-03-01T20:10:24.572Z,32.33
2019-03-01T20:12:53.467Z,28.23
2019-03-01T20:15:42.798Z,29.27
2019-03-01T20:18:09.733Z,29.63
2019-03-01T20:20:37.911Z,25.40
2019-03-01T20:23:04.631Z,24.93
2019-03-01T20:25:31.515Z,29.60
2019-03-01T20:27:58.291Z,26.70
2019-03-01T20:30:30.315Z,24.77
2019-03-01T20:32:54.463Z,27.37
2019-03-01T20:35:21.555Z,25.73
2019-03-01T20:37:48.465Z,25.37
2019-03-01T20:40:15.619Z,30.30
2019-03-01T20:42:42.847Z,28.97
2019-03-01T20:45:12.440Z,28.00
2019-03-01T20:47:39.320Z,31.27
2019-03-01T20:50:06.708Z,30.40
2019-03-01T20:52:34.847Z,32.13
2019-03-01T20:55:01.993Z,38.00
2019-03-01T20:57:29.347Z,30.97
2019-03-01T20:59:56.347Z,35.50
2019-03-01T21:02:23.348Z,38.23
2019-03-01T21:04:53.591Z,38.07
2019-03-01T21:07:18.779Z,33.37
2019-03-01T21:09:45.583Z,33.20
2019-03-01T21:12:12.423Z,29.87
2019-03-01T21:14:39.381Z,38.27
2019-03-01T21:17:06.131Z,31.23
2019-03-01T21:19:32.984Z,36.10
2019-03-01T21:22:01.546Z,33.23
2019-03-01T21:24:28.372Z,32.87
2019-03-01T21:26:55.263Z,38.77
2019-03-01T21:29:22.117Z,33.90
2019-03-01T21:31:48.907Z,35.27
2019-03-01T21:34:15.854Z,40.73
2019-03-01T21:36:42.639Z,36.43
2019-03-01T21:39:09.809Z,35.30
2019-03-01T21:41:37.395Z,35.93
2019-03-01T21:44:04.347Z,35.73
2019-03-01T21:46:34.055Z,32.77
2019-03-01T21:49:01.550Z,37.87
2019-03-01T21:51:28.430Z,37.43
2019-03-01T21:53:55.182Z,39.87
2019-03-01T21:56:23.094Z,38.33
2019-03-01T21:58:49.944Z,45.00
2019-03-01T22:01:16.935Z,38.53
2019-03-01T22:03:43.803Z,37.47
2019-03-01T22:06:10.648Z,34.87
2019-03-01T22:08:44.777Z,38.77
2019-03-01T22:11:13.607Z,38.53
2019-03-01T22:13:41.336Z,38.63
2019-03-01T22:16:08.482Z,43.33
2019-03-01T22:18:36.337Z,45.63
2019-03-01T22:21:03.395Z,39.73
2019-03-01T22:23:30.252Z,38.77
2019-03-01T22:25:57.140Z,40.37
2019-03-01T22:28:24.129Z,38.73
2019-03-01T22:30:51.189Z,43.53
2019-03-01T22:33:20.853Z,41.73
2019-03-01T22:35:46.610Z,40.10
2019-03-01T22:38:17.384Z,36.73
2019-03-01T22:40:44.235Z,45.77
2019-03-01T22:43:11.022Z,43.43
2019-03-01T22:45:37.771Z,41.20
2019-03-01T22:48:04.501Z,38.13
2019-03-01T22:50:31.387Z,39.47
2019-03-01T22:52:58.293Z,42.43
2019-03-01T22:55:25.275Z,40.47
2019-03-01T22:57:52.079Z,39.77
2019-03-01T23:01:18.767Z,38.17
2019-03-01T23:03:51.556Z,38.20
2019-03-01T23:06:19.489Z,36.13
2019-03-01T23:08:46.303Z,45.30
2019-03-01T23:11:13.218Z,39.23
2019-03-01T23:13:39.947Z,39.07
2019-03-01T23:16:06.879Z,41.03
2019-03-01T23:18:33.631Z,40.90
2019-03-01T23:21:01.069Z,43.60
2019-03-01T23:23:28.808Z,40.33
2019-03-01T23:25:55.570Z,40.27
2019-03-01T23:28:22.452Z,44.60
2019-03-01T23:30:49.312Z,44.90
2019-03-01T23:33:16.185Z,37.23
2019-03-01T23:35:43.302Z,48.30
2019-03-01T23:38:11.555Z,35.87
2019-03-01T23:40:38.964Z,41.27
2019-03-01T23:43:05.862Z,36.40
2019-03-01T23:45:32.717Z,36.27
2019-03-01T23:47:59.539Z,36.23
2019-03-01T23:50:26.377Z,35.13
2019-03-01T23:52:54.919Z,37.47
2019-03-01T23:55:22.268Z,37.10
2019-03-01T23:57:49.314Z,38.43
